createdAt,value
2018-08-12T00:00:23.963Z,24.50
2018-08-12T00:03:01.082Z,24.40
2018-08-12T00:05:36.216Z,24.40
2018-08-12T00:08:09.452Z,24.40
2018-08-12T00:10:42.422Z,24.40
2018-08-12T00:13:16.099Z,24.30
2018-08-12T00:15:49.126Z,24.40
2018-08-12T00:19:51.292Z,24.20
2018-08-12T00:22:24.508Z,24.10
2018-08-12T00:24:57.669Z,23.90
2018-08-12T00:27:30.732Z,23.90
2018-08-12T00:30:03.723Z,23.80
2018-08-12T00:32:36.961Z,23.80
2018-08-12T00:35:12.778Z,23.80
2018-08-12T00:37:46.863Z,23.70
2018-08-12T00:40:21.037Z,23.70
2018-08-12T00:42:57.525Z,23.70
2018-08-12T00:45:33.321Z,23.60
2018-08-12T00:48:08.926Z,23.50
2018-08-12T00:50:44.144Z,23.50
2018-08-12T00:53:21.125Z,23.40
2018-08-12T00:55:56.266Z,23.50
2018-08-12T00:58:32.931Z,23.50
2018-08-12T01:01:08.275Z,23.50
2018-08-12T01:03:42.886Z,23.50
2018-08-12T01:06:18.157Z,23.50
2018-08-12T01:08:53.368Z,23.50
2018-08-12T01:11:27.919Z,23.50
2018-08-12T01:14:01.379Z,23.40
2018-08-12T01:16:35.748Z,23.40
2018-08-12T01:19:10.529Z,23.30
2018-08-12T01:21:45.066Z,23.30
2018-08-12T01:24:21.310Z,23.20
2018-08-12T01:26:56.179Z,23.20
2018-08-12T01:29:31.054Z,23.10
2018-08-12T01:32:06.468Z,23.10
2018-08-12T01:34:42.108Z,23.00
2018-08-12T01:37:17.895Z,22.90
2018-08-12T01:39:53.470Z,22.90
2018-08-12T01:42:28.366Z,22.80
2018-08-12T01:45:03.289Z,22.80
2018-08-12T01:47:36.419Z,22.70
2018-08-12T01:50:10.356Z,22.60
2018-08-12T01:52:43.374Z,22.50
2018-08-12T01:55:17.598Z,22.50
2018-08-12T01:57:50.870Z,22.40
2018-08-12T02:00:25.069Z,22.30
2018-08-12T02:02:58.065Z,22.20
2018-08-12T02:05:32.511Z,22.10
2018-08-12T02:08:05.503Z,22.10
2018-08-12T02:10:38.508Z,22.00
2018-08-12T02:13:12.736Z,22.00
2018-08-12T02:15:49.079Z,22.00
2018-08-12T02:18:24.007Z,21.90
2018-08-12T02:20:59.067Z,21.80
2018-08-12T02:25:02.523Z,21.70
2018-08-12T02:27:36.196Z,21.70
2018-08-12T02:30:13.196Z,21.60
2018-08-12T02:32:46.193Z,21.60
2018-08-12T02:35:19.279Z,21.60
2018-08-12T02:37:52.298Z,21.50
2018-08-12T02:40:25.452Z,21.60
2018-08-12T02:42:58.629Z,21.60
2018-08-12T02:45:32.361Z,21.60
2018-08-12T02:48:05.352Z,21.70
2018-08-12T02:50:38.304Z,21.60
2018-08-12T02:53:11.427Z,21.60
2018-08-12T02:55:48.101Z,21.60
2018-08-12T02:58:22.096Z,21.50
2018-08-12T03:00:55.240Z,21.50
2018-08-12T03:03:28.374Z,21.40
2018-08-12T03:06:01.911Z,21.40
2018-08-12T03:08:35.442Z,21.30
2018-08-12T03:11:09.111Z,21.20
2018-08-12T03:13:42.226Z,21.10
2018-08-12T03:16:15.449Z,21.10
2018-08-12T03:18:48.521Z,21.10
2018-08-12T03:21:21.771Z,21.00
2018-08-12T03:23:55.248Z,21.00
2018-08-12T03:26:28.504Z,21.00
2018-08-12T03:29:02.168Z,20.90
2018-08-12T03:31:35.870Z,20.80
2018-08-12T03:34:09.463Z,20.80
2018-08-12T03:36:42.959Z,20.80
2018-08-12T03:39:16.048Z,20.70
2018-08-12T03:41:49.399Z,20.70
2018-08-12T03:44:22.803Z,20.70
2018-08-12T03:46:57.451Z,20.60
2018-08-12T03:49:30.615Z,20.70
2018-08-12T03:52:03.738Z,20.70
2018-08-12T03:54:36.985Z,20.60
2018-08-12T03:57:10.300Z,20.50
2018-08-12T03:59:43.424Z,20.50
2018-08-12T04:02:16.799Z,20.40
2018-08-12T04:04:49.929Z,20.40
2018-08-12T04:07:23.532Z,20.40
2018-08-12T04:09:57.085Z,20.30
2018-08-12T04:12:30.142Z,20.30
2018-08-12T04:15:04.056Z,20.20
2018-08-12T04:33:11.717Z,20.30
2018-08-12T04:35:46.947Z,20.00
2018-08-12T04:38:21.948Z,20.00
2018-08-12T04:40:57.184Z,20.00
2018-08-12T04:43:32.820Z,20.10
2018-08-12T04:46:10.164Z,20.10
2018-08-12T04:48:46.469Z,20.20
2018-08-12T04:51:20.341Z,20.20
2018-08-12T04:53:53.309Z,20.10
2018-08-12T04:56:26.432Z,20.10
2018-08-12T04:58:59.510Z,20.10
2018-08-12T05:01:32.644Z,20.10
2018-08-12T05:04:08.283Z,20.20
2018-08-12T05:06:41.346Z,20.20
2018-08-12T05:09:14.665Z,20.10
2018-08-12T05:11:47.654Z,20.10
2018-08-12T05:14:20.885Z,20.00
2018-08-12T05:16:53.688Z,20.00
2018-08-12T05:19:26.858Z,20.00
2018-08-12T05:21:59.849Z,19.90
2018-08-12T05:24:33.471Z,19.80
2018-08-12T05:27:06.971Z,19.80
2018-08-12T05:29:40.297Z,19.70
2018-08-12T05:32:13.185Z,19.70
2018-08-12T05:34:46.233Z,19.70
2018-08-12T05:37:19.209Z,19.70
2018-08-12T05:39:52.297Z,19.60
2018-08-12T05:42:25.212Z,19.60
2018-08-12T05:44:58.157Z,19.60
2018-08-12T05:47:31.057Z,19.50
2018-08-12T05:50:04.108Z,19.50
2018-08-12T05:52:37.109Z,19.50
2018-08-12T05:55:10.708Z,19.60
2018-08-12T05:57:43.825Z,19.60
2018-08-12T06:00:17.924Z,19.50
2018-08-12T06:02:51.062Z,19.50
2018-08-12T06:05:24.206Z,19.40
2018-08-12T06:07:57.358Z,19.40
2018-08-12T06:10:30.414Z,19.40
2018-08-12T06:13:04.001Z,19.30
2018-08-12T06:15:37.219Z,19.30
2018-08-12T06:18:10.237Z,19.30
2018-08-12T06:20:44.969Z,19.20
2018-08-12T06:23:18.341Z,19.20
2018-08-12T06:25:51.658Z,19.20
2018-08-12T06:28:24.802Z,19.20
2018-08-12T06:30:57.837Z,19.10
2018-08-12T06:33:31.543Z,19.10
2018-08-12T06:36:09.248Z,19.10
2018-08-12T06:38:42.246Z,19.10
2018-08-12T06:41:15.756Z,19.10
2018-08-12T06:43:48.896Z,19.00
2018-08-12T06:46:22.469Z,19.00
2018-08-12T06:48:55.797Z,19.00
2018-08-12T06:51:28.897Z,19.00
2018-08-12T06:54:02.129Z,19.00
2018-08-12T06:56:35.057Z,19.00
2018-08-12T06:59:08.292Z,19.00
2018-08-12T07:01:41.186Z,19.00
2018-08-12T07:04:14.339Z,19.00
2018-08-12T07:06:47.152Z,19.00
2018-08-12T07:09:20.435Z,19.00
2018-08-12T07:11:53.477Z,19.00
2018-08-12T07:14:26.644Z,19.00
2018-08-12T07:16:59.813Z,19.00
2018-08-12T07:19:33.044Z,19.00
2018-08-12T07:22:06.036Z,19.00
2018-08-12T07:24:38.966Z,19.00
2018-08-12T07:27:12.172Z,19.00
2018-08-12T07:29:45.277Z,18.90
2018-08-12T07:32:18.251Z,18.90
2018-08-12T07:34:51.453Z,18.80
2018-08-12T07:37:24.713Z,18.80
2018-08-12T07:39:57.743Z,18.80
2018-08-12T07:42:31.026Z,18.80
2018-08-12T07:45:04.135Z,18.80
2018-08-12T07:47:37.312Z,18.80
2018-08-12T07:50:11.296Z,18.80
2018-08-12T07:52:46.732Z,18.90
2018-08-12T07:55:19.730Z,18.90
2018-08-12T07:57:52.822Z,18.80
2018-08-12T08:00:25.797Z,18.80
2018-08-12T08:18:35.808Z,18.70
2018-08-12T08:21:08.871Z,19.20
2018-08-12T08:23:41.768Z,19.10
2018-08-12T08:26:14.792Z,19.00
2018-08-12T08:28:47.730Z,19.00
2018-08-12T08:31:20.646Z,18.90
2018-08-12T08:33:53.618Z,18.90
2018-08-12T08:36:38.599Z,18.90
2018-08-12T08:39:24.417Z,18.90
2018-08-12T08:42:00.835Z,18.80
2018-08-12T08:44:34.057Z,18.90
2018-08-12T08:47:07.071Z,18.90
2018-08-12T08:49:40.233Z,18.80
2018-08-12T08:52:13.445Z,18.80
2018-08-12T08:54:47.724Z,18.80
2018-08-12T08:57:20.713Z,18.80
2018-08-12T08:59:53.786Z,18.70
2018-08-12T09:02:26.989Z,18.90
2018-08-12T09:05:00.211Z,18.90
2018-08-12T09:07:33.348Z,18.80
2018-08-12T09:10:06.357Z,18.80
2018-08-12T09:12:39.861Z,18.80
2018-08-12T09:15:17.980Z,18.80
2018-08-12T09:17:51.503Z,18.60
2018-08-12T09:20:24.757Z,18.60
2018-08-12T09:22:57.828Z,18.70
2018-08-12T09:25:31.297Z,18.70
2018-08-12T09:28:04.321Z,18.60
2018-08-12T09:30:37.315Z,18.60
2018-08-12T09:33:10.324Z,18.50
2018-08-12T09:35:43.398Z,18.60
2018-08-12T09:38:16.378Z,18.60
2018-08-12T09:40:49.236Z,18.60
2018-08-12T09:43:22.712Z,18.60
2018-08-12T09:45:56.590Z,18.60
2018-08-12T09:48:29.940Z,18.60
2018-08-12T09:51:02.824Z,18.60
2018-08-12T09:53:36.044Z,18.60
2018-08-12T09:56:08.866Z,18.60
2018-08-12T09:58:42.201Z,18.60
2018-08-12T10:01:15.213Z,18.60
2018-08-12T10:03:48.201Z,18.50
2018-08-12T10:06:21.311Z,18.50
2018-08-12T10:08:54.411Z,18.50
2018-08-12T10:11:27.494Z,18.50
2018-08-12T10:14:00.401Z,18.40
2018-08-12T10:16:33.829Z,18.40
2018-08-12T10:19:07.233Z,18.50
2018-08-12T10:21:40.651Z,18.50
2018-08-12T10:24:13.680Z,18.50
2018-08-12T10:26:46.634Z,18.50
2018-08-12T10:29:19.739Z,18.50
2018-08-12T10:31:53.353Z,18.50
2018-08-12T10:34:26.354Z,18.40
2018-08-12T10:36:59.251Z,18.40
2018-08-12T10:39:32.690Z,18.30
2018-08-12T10:42:05.918Z,18.30
2018-08-12T10:44:38.888Z,18.30
2018-08-12T10:47:12.114Z,18.40
2018-08-12T10:49:45.058Z,18.30
2018-08-12T10:52:18.171Z,18.30
2018-08-12T10:54:51.420Z,18.30
2018-08-12T10:57:24.820Z,18.30
2018-08-12T10:59:57.945Z,18.40
2018-08-12T11:02:31.308Z,18.40
2018-08-12T11:05:04.331Z,18.40
2018-08-12T11:07:37.379Z,18.40
2018-08-12T11:10:12.149Z,18.40
2018-08-12T11:12:45.250Z,18.40
2018-08-12T11:15:18.310Z,18.40
2018-08-12T11:17:51.147Z,18.40
2018-08-12T11:20:23.993Z,18.50
2018-08-12T11:22:56.969Z,18.50
2018-08-12T11:25:30.095Z,18.40
2018-08-12T11:28:03.229Z,18.40
2018-08-12T11:30:37.294Z,18.30
2018-08-12T11:33:10.418Z,18.30
2018-08-12T11:35:43.447Z,18.30
2018-08-12T11:38:16.509Z,18.30
2018-08-12T11:40:49.508Z,18.30
2018-08-12T11:43:22.478Z,18.30
2018-08-12T11:45:55.624Z,18.20
2018-08-12T11:48:28.809Z,18.20
2018-08-12T11:51:02.035Z,18.20
2018-08-12T11:53:35.038Z,18.20
2018-08-12T11:56:08.116Z,18.20
2018-08-12T11:58:42.242Z,18.20
2018-08-12T12:01:17.204Z,18.10
2018-08-12T12:03:50.441Z,18.10
2018-08-12T12:06:23.484Z,18.10
2018-08-12T12:08:56.959Z,18.10
2018-08-12T12:11:30.025Z,18.20
2018-08-12T12:14:03.104Z,18.20
2018-08-12T12:16:36.680Z,18.20
2018-08-12T12:19:09.833Z,18.20
2018-08-12T12:21:42.673Z,18.30
2018-08-12T12:24:16.317Z,18.30
2018-08-12T12:27:01.547Z,18.30
2018-08-12T12:29:46.983Z,18.30
2018-08-12T12:32:31.714Z,18.30
2018-08-12T12:35:05.599Z,18.40
2018-08-12T12:37:46.184Z,18.50
2018-08-12T12:40:27.615Z,18.60
2018-08-12T12:43:09.109Z,18.70
2018-08-12T12:45:54.518Z,18.70
2018-08-12T12:48:37.260Z,18.80
2018-08-12T12:51:10.656Z,18.90
2018-08-12T12:53:44.736Z,19.00
2018-08-12T12:56:19.565Z,19.10
2018-08-12T12:58:52.789Z,19.30
2018-08-12T13:01:25.986Z,19.60
2018-08-12T13:03:59.200Z,19.80
2018-08-12T13:06:34.345Z,20.00
2018-08-12T13:09:09.637Z,20.20
2018-08-12T13:11:42.594Z,20.30
2018-08-12T13:14:15.532Z,20.40
2018-08-12T13:16:48.640Z,20.60
2018-08-12T13:19:21.524Z,20.60
2018-08-12T13:21:54.743Z,20.60
2018-08-12T13:24:27.741Z,20.60
2018-08-12T13:27:00.718Z,20.70
2018-08-12T13:29:33.723Z,20.90
2018-08-12T13:32:08.385Z,20.90
2018-08-12T13:34:41.645Z,20.90
2018-08-12T13:37:14.836Z,20.80
2018-08-12T13:39:48.033Z,20.80
2018-08-12T13:42:22.085Z,20.70
2018-08-12T13:44:58.575Z,20.60
2018-08-12T13:47:31.762Z,20.60
2018-08-12T13:50:04.903Z,20.60
2018-08-12T13:52:38.048Z,20.60
2018-08-12T13:55:11.739Z,20.60
2018-08-12T13:57:45.333Z,20.60
2018-08-12T14:00:21.845Z,20.70
2018-08-12T14:02:55.235Z,20.70
2018-08-12T14:06:57.090Z,20.80
2018-08-12T14:09:30.201Z,20.90
2018-08-12T14:12:03.353Z,21.00
2018-08-12T14:14:36.571Z,21.10
2018-08-12T14:17:09.473Z,21.20
2018-08-12T14:19:42.866Z,21.40
2018-08-12T14:22:15.743Z,21.60
2018-08-12T14:24:48.822Z,21.80
2018-08-12T14:27:24.384Z,21.80
2018-08-12T14:29:57.401Z,21.90
2018-08-12T14:32:30.555Z,22.00
2018-08-12T14:35:04.470Z,22.10
2018-08-12T14:37:37.579Z,22.20
2018-08-12T14:40:14.752Z,22.30
2018-08-12T14:42:47.828Z,22.40
2018-08-12T14:45:20.785Z,22.50
2018-08-12T14:47:53.916Z,22.60
2018-08-12T14:50:28.304Z,22.70
2018-08-12T14:53:03.331Z,22.80
2018-08-12T14:55:36.999Z,22.80
2018-08-12T14:58:10.916Z,22.90
2018-08-12T15:00:44.354Z,23.10
2018-08-12T15:03:17.764Z,23.10
2018-08-12T15:19:13.549Z,23.10
2018-08-12T15:21:46.421Z,23.60
2018-08-12T15:24:19.570Z,23.50
2018-08-12T15:26:52.580Z,23.60
2018-08-12T15:29:25.767Z,23.70
2018-08-12T15:31:59.377Z,23.80
2018-08-12T15:34:32.500Z,23.90
2018-08-12T15:37:05.601Z,23.90
2018-08-12T15:39:38.555Z,24.00
2018-08-12T15:42:11.716Z,24.10
2018-08-12T15:44:44.985Z,24.20
2018-08-12T15:47:18.455Z,24.10
2018-08-12T15:49:51.453Z,24.10
2018-08-12T15:52:24.674Z,24.10
2018-08-12T15:54:57.823Z,24.20
2018-08-12T15:57:31.010Z,24.30
2018-08-12T16:00:04.092Z,24.60
2018-08-12T16:02:37.014Z,24.40
2018-08-12T16:05:10.112Z,24.40
2018-08-12T16:07:43.426Z,24.50
2018-08-12T16:10:21.301Z,24.50
2018-08-12T16:12:55.605Z,24.60
2018-08-12T16:15:28.567Z,24.50
2018-08-12T16:18:01.878Z,24.60
2018-08-12T16:20:35.080Z,24.50
2018-08-12T16:23:08.312Z,24.50
2018-08-12T16:25:41.397Z,24.30
2018-08-12T16:28:15.919Z,24.40
2018-08-12T16:30:49.303Z,24.50
2018-08-12T16:33:22.349Z,24.50
2018-08-12T16:35:56.001Z,24.50
2018-08-12T16:38:29.824Z,24.50
2018-08-12T16:41:06.514Z,24.80
2018-08-12T16:43:42.182Z,25.00
2018-08-12T16:46:15.435Z,25.00
2018-08-12T16:48:48.757Z,25.30
2018-08-12T16:51:23.452Z,25.20
2018-08-12T16:53:58.580Z,25.30
2018-08-12T16:56:32.035Z,25.30
2018-08-12T16:59:05.583Z,25.20
2018-08-12T17:01:38.888Z,25.20
2018-08-12T17:04:12.895Z,25.20
2018-08-12T17:06:46.111Z,25.20
2018-08-12T17:09:19.278Z,25.20
2018-08-12T17:11:54.331Z,25.40
2018-08-12T17:14:27.334Z,25.50
2018-08-12T17:17:00.585Z,25.50
2018-08-12T17:19:33.558Z,25.60
2018-08-12T17:22:07.223Z,25.70
2018-08-12T17:24:40.556Z,25.60
2018-08-12T17:27:22.727Z,25.50
2018-08-12T17:30:07.992Z,25.40
2018-08-12T17:32:49.424Z,25.50
2018-08-12T17:35:35.141Z,25.70
2018-08-12T17:38:19.084Z,25.90
2018-08-12T17:41:02.270Z,26.20
2018-08-12T17:43:43.822Z,26.30
2018-08-12T17:46:25.526Z,26.40
2018-08-12T17:49:11.467Z,26.40
2018-08-12T17:51:51.415Z,26.70
2018-08-12T17:54:35.891Z,27.20
2018-08-12T17:57:09.260Z,27.00
2018-08-12T17:59:42.193Z,27.30
2018-08-12T18:02:15.503Z,28.00
2018-08-12T18:04:48.594Z,28.20
2018-08-12T18:07:21.739Z,28.10
2018-08-12T18:09:54.644Z,28.20
2018-08-12T18:12:27.620Z,28.40
2018-08-12T18:15:00.490Z,28.50
2018-08-12T18:17:33.750Z,28.40
2018-08-12T18:20:07.347Z,28.00
2018-08-12T18:22:41.617Z,28.30
2018-08-12T18:25:14.874Z,28.70
2018-08-12T18:27:48.102Z,28.70
2018-08-12T18:30:20.972Z,28.50
2018-08-12T18:32:54.134Z,28.20
2018-08-12T18:35:27.539Z,28.60
2018-08-12T18:38:01.956Z,28.80
2018-08-12T18:40:35.314Z,28.80
2018-08-12T18:43:08.250Z,29.00
2018-08-12T18:45:44.022Z,28.70
2018-08-12T18:48:17.402Z,28.50
2018-08-12T18:50:50.549Z,28.60
2018-08-12T18:53:23.939Z,28.60
2018-08-12T18:55:57.016Z,28.90
2018-08-12T18:58:30.331Z,29.00
2018-08-12T19:01:03.647Z,28.80
2018-08-12T19:03:36.724Z,28.80
2018-08-12T19:06:10.977Z,29.10
2018-08-12T19:08:44.038Z,29.20
2018-08-12T19:11:17.762Z,29.20
2018-08-12T19:13:54.517Z,28.60
2018-08-12T19:16:28.058Z,29.10
2018-08-12T19:19:01.108Z,29.40
2018-08-12T19:21:34.445Z,29.50
2018-08-12T19:24:07.662Z,29.90
2018-08-12T19:26:40.668Z,29.90
2018-08-12T19:29:15.041Z,29.50
2018-08-12T19:31:48.266Z,29.00
2018-08-12T19:34:21.796Z,28.80
2018-08-12T19:36:55.154Z,28.80
2018-08-12T19:39:28.428Z,29.00
2018-08-12T19:42:02.614Z,29.10
2018-08-12T19:44:36.570Z,29.00
2018-08-12T19:47:10.111Z,29.30
2018-08-12T19:49:43.429Z,29.40
2018-08-12T19:52:17.193Z,29.50
2018-08-12T19:54:50.780Z,29.50
2018-08-12T19:57:24.023Z,29.60
2018-08-12T19:59:57.156Z,29.80
2018-08-12T20:02:30.705Z,30.00
2018-08-12T20:05:04.021Z,29.90
2018-08-12T20:07:37.340Z,29.40
2018-08-12T20:10:12.377Z,29.60
2018-08-12T20:12:45.461Z,29.40
2018-08-12T20:15:18.356Z,29.50
2018-08-12T20:17:51.458Z,29.80
2018-08-12T20:20:24.592Z,29.60
2018-08-12T20:22:57.754Z,30.10
2018-08-12T20:25:31.886Z,30.50
2018-08-12T20:28:05.069Z,30.50
2018-08-12T20:30:38.452Z,30.40
2018-08-12T20:33:11.544Z,30.30
2018-08-12T20:35:44.819Z,30.40
2018-08-12T20:38:17.601Z,29.80
2018-08-12T20:40:50.828Z,30.00
2018-08-12T20:43:23.877Z,30.20
2018-08-12T20:45:56.941Z,30.10
2018-08-12T20:48:29.949Z,30.20
2018-08-12T20:51:03.304Z,30.20
2018-08-12T20:53:36.321Z,30.20
2018-08-12T20:56:09.404Z,30.50
2018-08-12T20:58:42.641Z,30.30
2018-08-12T21:01:16.886Z,29.70
2018-08-12T21:03:50.322Z,29.60
2018-08-12T21:06:23.455Z,29.30
2018-08-12T21:08:57.401Z,29.40
2018-08-12T21:11:32.193Z,29.60
2018-08-12T21:15:35.788Z,29.40
2018-08-12T21:18:10.090Z,28.90
2018-08-12T21:20:44.841Z,28.60
2018-08-12T21:23:18.434Z,28.80
2018-08-12T21:25:51.264Z,28.50
2018-08-12T21:28:26.512Z,28.30
2018-08-12T21:31:01.970Z,28.00
2018-08-12T21:33:39.742Z,27.80
2018-08-12T21:36:15.695Z,27.80
2018-08-12T21:38:49.394Z,27.80
2018-08-12T21:41:23.067Z,27.50
2018-08-12T21:43:57.167Z,27.50
2018-08-12T21:46:32.363Z,27.50
2018-08-12T21:49:06.044Z,27.50
2018-08-12T21:51:39.771Z,27.20
2018-08-12T21:54:12.751Z,27.30
2018-08-12T21:56:46.067Z,27.10
2018-08-12T21:59:19.180Z,27.10
2018-08-12T22:01:52.258Z,27.00
2018-08-12T22:04:25.327Z,27.10
2018-08-12T22:06:58.596Z,26.90
2018-08-12T22:09:32.096Z,26.80
2018-08-12T22:12:04.826Z,26.60
2018-08-12T22:14:39.922Z,26.40
2018-08-12T22:17:12.949Z,26.30
2018-08-12T22:19:46.824Z,26.00
2018-08-12T22:22:19.782Z,26.00
2018-08-12T22:24:53.084Z,25.80
2018-08-12T22:27:26.472Z,25.70
2018-08-12T22:29:59.758Z,25.90
2018-08-12T22:32:33.070Z,25.90
2018-08-12T22:35:06.204Z,26.00
2018-08-12T22:37:39.159Z,25.90
2018-08-12T22:40:12.323Z,26.00
2018-08-12T22:42:46.864Z,25.90
2018-08-12T22:45:20.749Z,25.80
2018-08-12T22:47:54.101Z,25.60
2018-08-12T22:50:27.567Z,25.70
2018-08-12T22:53:00.957Z,25.80
2018-08-12T22:55:34.361Z,25.90
2018-08-12T22:58:07.633Z,25.90
2018-08-12T23:00:42.985Z,25.90
2018-08-12T23:03:20.490Z,25.90
2018-08-12T23:05:53.828Z,25.80
2018-08-12T23:08:26.865Z,25.70
2018-08-12T23:10:59.648Z,25.60
2018-08-12T23:13:33.047Z,25.50
2018-08-12T23:16:17.109Z,25.60
2018-08-12T23:18:53.842Z,25.40
2018-08-12T23:21:27.057Z,25.20
2018-08-12T23:24:00.020Z,25.20
2018-08-12T23:26:33.040Z,25.10
2018-08-12T23:29:06.824Z,25.00
2018-08-12T23:31:45.431Z,25.00
2018-08-12T23:34:20.668Z,24.90
2018-08-12T23:36:57.305Z,24.70
2018-08-12T23:39:32.172Z,24.60
2018-08-12T23:42:07.543Z,24.40
2018-08-12T23:44:40.556Z,24.40
2018-08-12T23:47:13.725Z,24.40
2018-08-12T23:49:46.893Z,24.40
2018-08-12T23:52:19.976Z,24.30
2018-08-12T23:54:53.103Z,24.20
2018-08-12T23:57:26.261Z,24.20
2018-08-12T23:59:59.453Z,24.20
